sensor_id;sensor_type;location;lat;lon;timestamp;P1;durP1;ratioP1;P2;durP2;ratioP2
83115;SDS011;72996;40.206;44.498;2023-10-31T00:01:17;18.70;;;9.40;;
83115;SDS011;72996;40.206;44.498;2023-10-31T00:03:42;17.70;;;9.32;;
83115;SDS011;72996;40.206;44.498;2023-10-31T00:06:09;21.13;;;9.23;;
83115;SDS011;72996;40.206;44.498;2023-10-31T00:08:35;20.92;;;10.00;;
83115;SDS011;72996;40.206;44.498;2023-10-31T00:11:00;18.75;;;10.00;;
83115;SDS011;72996;40.206;44.498;2023-10-31T00:13:26;18.10;;;9.40;;
83115;SDS011;72996;40.206;44.498;2023-10-31T00:15:52;17.98;;;9.43;;
83115;SDS011;72996;40.206;44.498;2023-10-31T00:18:17;20.40;;;9.32;;
83115;SDS011;72996;40.206;44.498;2023-10-31T00:20:43;21.10;;;9.55;;
83115;SDS011;72996;40.206;44.498;2023-10-31T00:23:08;17.35;;;8.45;;
83115;SDS011;72996;40.206;44.498;2023-10-31T00:25:34;15.77;;;8.48;;
83115;SDS011;72996;40.206;44.498;2023-10-31T00:28:00;18.92;;;8.25;;
83115;SDS011;72996;40.206;44.498;2023-10-31T00:30:25;16.30;;;7.82;;
83115;SDS011;72996;40.206;44.498;2023-10-31T00:32:51;16.95;;;8.38;;
83115;SDS011;72996;40.206;44.498;2023-10-31T00:35:16;18.10;;;9.45;;
83115;SDS011;72996;40.206;44.498;2023-10-31T00:37:43;18.08;;;8.45;;
83115;SDS011;72996;40.206;44.498;2023-10-31T00:40:08;17.52;;;7.38;;
83115;SDS011;72996;40.206;44.498;2023-10-31T00:42:37;17.60;;;7.55;;
83115;SDS011;72996;40.206;44.498;2023-10-31T00:45:05;13.45;;;7.57;;
83115;SDS011;72996;40.206;44.498;2023-10-31T00:47:32;19.52;;;8.05;;
83115;SDS011;72996;40.206;44.498;2023-10-31T00:49:58;18.40;;;7.80;;
83115;SDS011;72996;40.206;44.498;2023-10-31T00:52:23;15.35;;;8.43;;
83115;SDS011;72996;40.206;44.498;2023-10-31T00:54:49;18.65;;;9.32;;
83115;SDS011;72996;40.206;44.498;2023-10-31T00:57:15;15.95;;;7.95;;
83115;SDS011;72996;40.206;44.498;2023-10-31T00:59:40;17.20;;;7.57;;
83115;SDS011;72996;40.206;44.498;2023-10-31T01:02:06;17.33;;;7.60;;
83115;SDS011;72996;40.206;44.498;2023-10-31T01:04:31;16.42;;;7.72;;
83115;SDS011;72996;40.206;44.498;2023-10-31T01:06:57;16.90;;;7.07;;
83115;SDS011;72996;40.206;44.498;2023-10-31T01:09:23;17.10;;;7.28;;
83115;SDS011;72996;40.206;44.498;2023-10-31T01:11:48;14.60;;;6.95;;
83115;SDS011;72996;40.206;44.498;2023-10-31T01:14:14;13.23;;;6.70;;
83115;SDS011;72996;40.206;44.498;2023-10-31T01:16:40;14.40;;;7.07;;
83115;SDS011;72996;40.206;44.498;2023-10-31T01:19:06;13.20;;;7.28;;
83115;SDS011;72996;40.206;44.498;2023-10-31T01:21:32;15.40;;;7.10;;
83115;SDS011;72996;40.206;44.498;2023-10-31T01:23:58;12.75;;;6.70;;
83115;SDS011;72996;40.206;44.498;2023-10-31T01:26:24;17.42;;;7.95;;
83115;SDS011;72996;40.206;44.498;2023-10-31T01:28:50;14.90;;;7.28;;
83115;SDS011;72996;40.206;44.498;2023-10-31T01:31:16;15.15;;;7.07;;
83115;SDS011;72996;40.206;44.498;2023-10-31T01:33:42;15.73;;;7.18;;
83115;SDS011;72996;40.206;44.498;2023-10-31T01:36:07;16.08;;;7.32;;
83115;SDS011;72996;40.206;44.498;2023-10-31T01:38:35;17.05;;;7.32;;
83115;SDS011;72996;40.206;44.498;2023-10-31T01:41:00;14.70;;;6.78;;
83115;SDS011;72996;40.206;44.498;2023-10-31T01:43:32;15.25;;;6.97;;
83115;SDS011;72996;40.206;44.498;2023-10-31T01:45:59;12.65;;;6.78;;
83115;SDS011;72996;40.206;44.498;2023-10-31T01:48:25;13.40;;;7.15;;
83115;SDS011;72996;40.206;44.498;2023-10-31T01:50:54;15.35;;;7.07;;
83115;SDS011;72996;40.206;44.498;2023-10-31T01:53:20;13.40;;;7.90;;
83115;SDS011;72996;40.206;44.498;2023-10-31T01:55:45;18.52;;;7.45;;
83115;SDS011;72996;40.206;44.498;2023-10-31T01:58:11;16.42;;;8.02;;
83115;SDS011;72996;40.206;44.498;2023-10-31T02:00:39;17.55;;;8.90;;
83115;SDS011;72996;40.206;44.498;2023-10-31T02:03:06;18.27;;;7.72;;
83115;SDS011;72996;40.206;44.498;2023-10-31T02:05:33;14.32;;;7.93;;
83115;SDS011;72996;40.206;44.498;2023-10-31T02:07:59;18.73;;;8.00;;
83115;SDS011;72996;40.206;44.498;2023-10-31T02:10:25;19.48;;;8.68;;
83115;SDS011;72996;40.206;44.498;2023-10-31T02:12:51;16.60;;;7.82;;
83115;SDS011;72996;40.206;44.498;2023-10-31T02:15:16;12.65;;;7.53;;
83115;SDS011;72996;40.206;44.498;2023-10-31T02:17:42;14.63;;;7.10;;
83115;SDS011;72996;40.206;44.498;2023-10-31T02:20:08;17.17;;;7.63;;
83115;SDS011;72996;40.206;44.498;2023-10-31T02:22:33;17.25;;;6.45;;
83115;SDS011;72996;40.206;44.498;2023-10-31T02:24:59;17.20;;;7.53;;
83115;SDS011;72996;40.206;44.498;2023-10-31T02:27:25;13.82;;;6.97;;
83115;SDS011;72996;40.206;44.498;2023-10-31T02:29:50;13.15;;;7.05;;
83115;SDS011;72996;40.206;44.498;2023-10-31T02:32:16;14.32;;;7.07;;
83115;SDS011;72996;40.206;44.498;2023-10-31T02:34:41;16.95;;;7.85;;
83115;SDS011;72996;40.206;44.498;2023-10-31T02:37:07;15.45;;;8.63;;
83115;SDS011;72996;40.206;44.498;2023-10-31T02:39:33;16.42;;;7.85;;
83115;SDS011;72996;40.206;44.498;2023-10-31T02:41:58;16.95;;;7.55;;
83115;SDS011;72996;40.206;44.498;2023-10-31T02:44:24;19.13;;;8.38;;
83115;SDS011;72996;40.206;44.498;2023-10-31T02:46:50;18.63;;;8.05;;
83115;SDS011;72996;40.206;44.498;2023-10-31T02:49:15;18.90;;;9.10;;
83115;SDS011;72996;40.206;44.498;2023-10-31T02:51:41;26.92;;;12.73;;
83115;SDS011;72996;40.206;44.498;2023-10-31T02:54:06;26.80;;;13.07;;
83115;SDS011;72996;40.206;44.498;2023-10-31T02:56:32;26.20;;;12.52;;
83115;SDS011;72996;40.206;44.498;2023-10-31T02:58:57;23.70;;;11.80;;
83115;SDS011;72996;40.206;44.498;2023-10-31T03:01:23;26.60;;;12.45;;
83115;SDS011;72996;40.206;44.498;2023-10-31T03:03:53;27.35;;;12.18;;
83115;SDS011;72996;40.206;44.498;2023-10-31T03:06:18;25.33;;;11.57;;
83115;SDS011;72996;40.206;44.498;2023-10-31T03:08:44;25.73;;;11.75;;
83115;SDS011;72996;40.206;44.498;2023-10-31T03:11:19;27.23;;;11.52;;
83115;SDS011;72996;40.206;44.498;2023-10-31T03:13:46;25.77;;;11.15;;
83115;SDS011;72996;40.206;44.498;2023-10-31T03:16:11;20.70;;;11.07;;
83115;SDS011;72996;40.206;44.498;2023-10-31T03:18:37;25.60;;;10.70;;
83115;SDS011;72996;40.206;44.498;2023-10-31T03:21:03;25.45;;;10.85;;
83115;SDS011;72996;40.206;44.498;2023-10-31T03:23:28;24.15;;;10.93;;
83115;SDS011;72996;40.206;44.498;2023-10-31T03:25:54;27.80;;;11.88;;
83115;SDS011;72996;40.206;44.498;2023-10-31T03:28:20;27.38;;;10.38;;
83115;SDS011;72996;40.206;44.498;2023-10-31T03:30:49;25.10;;;10.63;;
83115;SDS011;72996;40.206;44.498;2023-10-31T03:33:15;23.42;;;10.25;;
83115;SDS011;72996;40.206;44.498;2023-10-31T03:35:44;24.88;;;10.98;;
83115;SDS011;72996;40.206;44.498;2023-10-31T03:38:10;26.15;;;10.80;;
83115;SDS011;72996;40.206;44.498;2023-10-31T03:40:35;26.42;;;10.90;;
83115;SDS011;72996;40.206;44.498;2023-10-31T03:43:01;25.80;;;10.55;;
83115;SDS011;72996;40.206;44.498;2023-10-31T03:45:27;25.63;;;10.57;;
83115;SDS011;72996;40.206;44.498;2023-10-31T03:47:52;25.23;;;10.00;;
83115;SDS011;72996;40.206;44.498;2023-10-31T03:50:18;22.85;;;9.98;;
83115;SDS011;72996;40.206;44.498;2023-10-31T03:52:43;27.60;;;10.88;;
83115;SDS011;72996;40.206;44.498;2023-10-31T03:55:09;24.70;;;10.95;;
83115;SDS011;72996;40.206;44.498;2023-10-31T03:57:35;23.75;;;10.30;;
83115;SDS011;72996;40.206;44.498;2023-10-31T04:00:00;26.52;;;11.13;;
83115;SDS011;72996;40.206;44.498;2023-10-31T04:02:26;24.85;;;10.65;;
83115;SDS011;72996;40.206;44.498;2023-10-31T04:04:51;29.77;;;11.23;;
83115;SDS011;72996;40.206;44.498;2023-10-31T04:07:17;24.67;;;10.75;;
83115;SDS011;72996;40.206;44.498;2023-10-31T04:09:42;24.98;;;10.45;;
83115;SDS011;72996;40.206;44.498;2023-10-31T04:12:08;23.70;;;10.35;;
83115;SDS011;72996;40.206;44.498;2023-10-31T04:14:34;22.40;;;10.93;;
83115;SDS011;72996;40.206;44.498;2023-10-31T04:17:00;25.95;;;10.85;;
83115;SDS011;72996;40.206;44.498;2023-10-31T04:19:25;24.75;;;11.00;;
83115;SDS011;72996;40.206;44.498;2023-10-31T04:21:52;26.65;;;10.93;;
83115;SDS011;72996;40.206;44.498;2023-10-31T04:24:19;27.92;;;11.23;;
83115;SDS011;72996;40.206;44.498;2023-10-31T04:26:45;25.95;;;11.40;;
83115;SDS011;72996;40.206;44.498;2023-10-31T04:29:10;30.10;;;14.40;;
83115;SDS011;72996;40.206;44.498;2023-10-31T04:31:36;29.60;;;12.93;;
83115;SDS011;72996;40.206;44.498;2023-10-31T04:34:01;37.13;;;13.32;;
83115;SDS011;72996;40.206;44.498;2023-10-31T04:36:27;31.25;;;11.70;;
83115;SDS011;72996;40.206;44.498;2023-10-31T04:38:53;24.88;;;10.85;;
83115;SDS011;72996;40.206;44.498;2023-10-31T04:41:19;57.25;;;13.32;;
83115;SDS011;72996;40.206;44.498;2023-10-31T04:43:45;33.00;;;12.40;;
83115;SDS011;72996;40.206;44.498;2023-10-31T04:46:11;24.92;;;11.20;;
83115;SDS011;72996;40.206;44.498;2023-10-31T04:48:36;27.10;;;11.80;;
83115;SDS011;72996;40.206;44.498;2023-10-31T04:51:02;23.25;;;9.93;;
83115;SDS011;72996;40.206;44.498;2023-10-31T04:53:28;26.52;;;10.77;;
83115;SDS011;72996;40.206;44.498;2023-10-31T04:55:53;23.05;;;10.35;;
83115;SDS011;72996;40.206;44.498;2023-10-31T04:58:19;23.13;;;10.25;;
83115;SDS011;72996;40.206;44.498;2023-10-31T05:00:46;26.20;;;10.02;;
83115;SDS011;72996;40.206;44.498;2023-10-31T05:03:12;29.92;;;11.98;;
83115;SDS011;72996;40.206;44.498;2023-10-31T05:05:37;27.40;;;12.05;;
83115;SDS011;72996;40.206;44.498;2023-10-31T05:08:03;35.45;;;12.55;;
83115;SDS011;72996;40.206;44.498;2023-10-31T05:10:29;29.17;;;11.80;;
83115;SDS011;72996;40.206;44.498;2023-10-31T05:12:54;25.80;;;11.35;;
83115;SDS011;72996;40.206;44.498;2023-10-31T05:15:20;24.63;;;11.27;;
83115;SDS011;72996;40.206;44.498;2023-10-31T05:17:45;26.83;;;12.68;;
83115;SDS011;72996;40.206;44.498;2023-10-31T05:20:11;24.45;;;11.05;;
83115;SDS011;72996;40.206;44.498;2023-10-31T05:22:37;26.98;;;11.68;;
83115;SDS011;72996;40.206;44.498;2023-10-31T05:25:02;25.15;;;11.88;;
83115;SDS011;72996;40.206;44.498;2023-10-31T05:27:28;27.95;;;12.07;;
83115;SDS011;72996;40.206;44.498;2023-10-31T05:29:54;21.35;;;11.52;;
83115;SDS011;72996;40.206;44.498;2023-10-31T05:32:20;28.98;;;11.75;;
83115;SDS011;72996;40.206;44.498;2023-10-31T05:34:45;19.17;;;10.82;;
83115;SDS011;72996;40.206;44.498;2023-10-31T05:37:11;26.63;;;11.95;;
83115;SDS011;72996;40.206;44.498;2023-10-31T05:39:36;26.85;;;10.50;;
83115;SDS011;72996;40.206;44.498;2023-10-31T05:42:02;25.95;;;14.45;;
83115;SDS011;72996;40.206;44.498;2023-10-31T05:44:28;23.33;;;11.27;;
83115;SDS011;72996;40.206;44.498;2023-10-31T05:46:54;25.67;;;10.77;;
83115;SDS011;72996;40.206;44.498;2023-10-31T05:49:20;28.77;;;10.98;;
83115;SDS011;72996;40.206;44.498;2023-10-31T05:51:52;26.75;;;11.10;;
83115;SDS011;72996;40.206;44.498;2023-10-31T05:54:18;23.45;;;9.35;;
83115;SDS011;72996;40.206;44.498;2023-10-31T05:56:43;25.67;;;9.93;;
83115;SDS011;72996;40.206;44.498;2023-10-31T05:59:10;24.52;;;10.25;;
83115;SDS011;72996;40.206;44.498;2023-10-31T06:01:36;21.40;;;8.98;;
83115;SDS011;72996;40.206;44.498;2023-10-31T06:04:02;19.48;;;8.68;;
83115;SDS011;72996;40.206;44.498;2023-10-31T06:06:28;21.85;;;8.90;;
83115;SDS011;72996;40.206;44.498;2023-10-31T06:08:55;25.80;;;9.02;;
83115;SDS011;72996;40.206;44.498;2023-10-31T06:11:20;25.75;;;9.18;;
83115;SDS011;72996;40.206;44.498;2023-10-31T06:13:46;30.77;;;11.63;;
83115;SDS011;72996;40.206;44.498;2023-10-31T06:16:13;20.50;;;8.05;;
83115;SDS011;72996;40.206;44.498;2023-10-31T06:18:38;20.23;;;7.30;;
83115;SDS011;72996;40.206;44.498;2023-10-31T06:21:05;19.45;;;7.70;;
83115;SDS011;72996;40.206;44.498;2023-10-31T06:23:31;23.75;;;8.60;;
83115;SDS011;72996;40.206;44.498;2023-10-31T06:25:56;26.27;;;18.98;;
83115;SDS011;72996;40.206;44.498;2023-10-31T06:28:23;25.70;;;8.35;;
83115;SDS011;72996;40.206;44.498;2023-10-31T06:30:48;19.73;;;8.20;;
83115;SDS011;72996;40.206;44.498;2023-10-31T06:33:14;19.60;;;7.18;;
83115;SDS011;72996;40.206;44.498;2023-10-31T06:35:39;19.30;;;7.63;;
83115;SDS011;72996;40.206;44.498;2023-10-31T06:38:05;16.75;;;7.13;;
83115;SDS011;72996;40.206;44.498;2023-10-31T06:40:31;23.35;;;8.57;;
83115;SDS011;72996;40.206;44.498;2023-10-31T06:42:57;20.08;;;7.95;;
83115;SDS011;72996;40.206;44.498;2023-10-31T06:45:22;18.55;;;7.25;;
83115;SDS011;72996;40.206;44.498;2023-10-31T06:47:48;18.33;;;7.00;;
83115;SDS011;72996;40.206;44.498;2023-10-31T06:50:13;18.23;;;7.68;;
83115;SDS011;72996;40.206;44.498;2023-10-31T06:52:39;18.92;;;8.00;;
83115;SDS011;72996;40.206;44.498;2023-10-31T06:55:05;22.58;;;8.13;;
83115;SDS011;72996;40.206;44.498;2023-10-31T06:57:30;19.55;;;8.75;;
83115;SDS011;72996;40.206;44.498;2023-10-31T06:59:56;29.48;;;9.07;;
83115;SDS011;72996;40.206;44.498;2023-10-31T07:02:22;21.20;;;8.15;;
83115;SDS011;72996;40.206;44.498;2023-10-31T07:04:47;18.65;;;7.72;;
83115;SDS011;72996;40.206;44.498;2023-10-31T07:07:13;19.38;;;7.78;;
83115;SDS011;72996;40.206;44.498;2023-10-31T07:09:38;16.45;;;8.10;;
83115;SDS011;72996;40.206;44.498;2023-10-31T07:12:04;17.58;;;7.43;;
83115;SDS011;72996;40.206;44.498;2023-10-31T07:14:30;21.88;;;7.68;;
83115;SDS011;72996;40.206;44.498;2023-10-31T07:16:56;24.92;;;8.85;;
83115;SDS011;72996;40.206;44.498;2023-10-31T07:19:21;17.20;;;8.68;;
83115;SDS011;72996;40.206;44.498;2023-10-31T07:21:47;20.33;;;8.57;;
83115;SDS011;72996;40.206;44.498;2023-10-31T07:24:13;23.17;;;8.88;;
83115;SDS011;72996;40.206;44.498;2023-10-31T07:26:38;19.80;;;8.93;;
83115;SDS011;72996;40.206;44.498;2023-10-31T07:29:04;25.23;;;8.93;;
83115;SDS011;72996;40.206;44.498;2023-10-31T07:31:30;19.30;;;8.18;;
83115;SDS011;72996;40.206;44.498;2023-10-31T07:33:56;22.05;;;8.20;;
83115;SDS011;72996;40.206;44.498;2023-10-31T07:36:21;22.25;;;9.10;;
83115;SDS011;72996;40.206;44.498;2023-10-31T07:38:47;18.00;;;8.18;;
83115;SDS011;72996;40.206;44.498;2023-10-31T07:41:13;20.38;;;8.57;;
83115;SDS011;72996;40.206;44.498;2023-10-31T07:43:39;24.48;;;7.35;;
83115;SDS011;72996;40.206;44.498;2023-10-31T07:46:04;19.38;;;7.50;;
83115;SDS011;72996;40.206;44.498;2023-10-31T07:48:30;20.33;;;7.53;;
83115;SDS011;72996;40.206;44.498;2023-10-31T07:50:56;22.48;;;7.43;;
83115;SDS011;72996;40.206;44.498;2023-10-31T07:53:22;17.73;;;8.05;;
83115;SDS011;72996;40.206;44.498;2023-10-31T07:55:48;24.65;;;8.40;;
83115;SDS011;72996;40.206;44.498;2023-10-31T07:58:14;27.95;;;10.13;;
83115;SDS011;72996;40.206;44.498;2023-10-31T08:00:39;21.75;;;8.27;;
83115;SDS011;72996;40.206;44.498;2023-10-31T08:03:05;20.67;;;9.20;;
83115;SDS011;72996;40.206;44.498;2023-10-31T08:05:30;20.25;;;8.68;;
83115;SDS011;72996;40.206;44.498;2023-10-31T08:07:56;22.95;;;9.02;;
83115;SDS011;72996;40.206;44.498;2023-10-31T08:10:21;23.60;;;8.68;;
83115;SDS011;72996;40.206;44.498;2023-10-31T08:12:47;21.40;;;8.90;;
83115;SDS011;72996;40.206;44.498;2023-10-31T08:15:13;24.40;;;9.05;;
83115;SDS011;72996;40.206;44.498;2023-10-31T08:17:40;23.88;;;8.50;;
83115;SDS011;72996;40.206;44.498;2023-10-31T08:20:06;17.15;;;7.88;;
83115;SDS011;72996;40.206;44.498;2023-10-31T08:22:32;23.95;;;9.75;;
83115;SDS011;72996;40.206;44.498;2023-10-31T08:24:57;23.83;;;9.02;;
83115;SDS011;72996;40.206;44.498;2023-10-31T08:27:23;23.13;;;8.73;;
83115;SDS011;72996;40.206;44.498;2023-10-31T08:29:48;28.98;;;8.73;;
83115;SDS011;72996;40.206;44.498;2023-10-31T08:32:14;23.67;;;8.15;;
83115;SDS011;72996;40.206;44.498;2023-10-31T08:34:39;23.17;;;9.10;;
83115;SDS011;72996;40.206;44.498;2023-10-31T08:37:05;23.92;;;9.40;;
83115;SDS011;72996;40.206;44.498;2023-10-31T08:39:31;21.33;;;8.57;;
83115;SDS011;72996;40.206;44.498;2023-10-31T08:41:57;16.17;;;7.80;;
83115;SDS011;72996;40.206;44.498;2023-10-31T08:44:23;30.67;;;16.15;;
83115;SDS011;72996;40.206;44.498;2023-10-31T08:46:49;23.95;;;9.88;;
83115;SDS011;72996;40.206;44.498;2023-10-31T08:49:15;23.17;;;9.25;;
83115;SDS011;72996;40.206;44.498;2023-10-31T08:51:41;21.85;;;9.15;;
83115;SDS011;72996;40.206;44.498;2023-10-31T08:54:07;22.05;;;9.15;;
83115;SDS011;72996;40.206;44.498;2023-10-31T08:56:34;20.90;;;8.70;;
83115;SDS011;72996;40.206;44.498;2023-10-31T08:58:59;18.90;;;8.38;;
83115;SDS011;72996;40.206;44.498;2023-10-31T09:01:26;27.40;;;9.52;;
83115;SDS011;72996;40.206;44.498;2023-10-31T09:03:54;17.52;;;9.02;;
83115;SDS011;72996;40.206;44.498;2023-10-31T09:06:20;18.92;;;8.80;;
83115;SDS011;72996;40.206;44.498;2023-10-31T09:08:45;19.52;;;9.07;;
83115;SDS011;72996;40.206;44.498;2023-10-31T09:11:11;18.45;;;9.15;;
83115;SDS011;72996;40.206;44.498;2023-10-31T09:13:36;17.08;;;9.05;;
83115;SDS011;72996;40.206;44.498;2023-10-31T09:16:02;15.57;;;8.57;;
83115;SDS011;72996;40.206;44.498;2023-10-31T09:18:28;16.85;;;8.45;;
83115;SDS011;72996;40.206;44.498;2023-10-31T09:20:53;19.15;;;8.45;;
83115;SDS011;72996;40.206;44.498;2023-10-31T09:23:19;17.35;;;8.10;;
83115;SDS011;72996;40.206;44.498;2023-10-31T09:25:45;19.08;;;8.35;;
83115;SDS011;72996;40.206;44.498;2023-10-31T09:28:11;16.98;;;8.95;;
83115;SDS011;72996;40.206;44.498;2023-10-31T09:30:37;18.75;;;8.70;;
83115;SDS011;72996;40.206;44.498;2023-10-31T09:33:03;36.75;;;11.48;;
83115;SDS011;72996;40.206;44.498;2023-10-31T09:35:28;19.95;;;8.95;;
83115;SDS011;72996;40.206;44.498;2023-10-31T09:37:54;18.30;;;8.25;;
83115;SDS011;72996;40.206;44.498;2023-10-31T09:40:20;22.45;;;8.85;;
83115;SDS011;72996;40.206;44.498;2023-10-31T09:42:47;16.30;;;7.80;;
83115;SDS011;72996;40.206;44.498;2023-10-31T09:45:14;16.50;;;7.80;;
83115;SDS011;72996;40.206;44.498;2023-10-31T09:47:40;16.27;;;8.52;;
83115;SDS011;72996;40.206;44.498;2023-10-31T09:50:08;21.63;;;9.20;;
83115;SDS011;72996;40.206;44.498;2023-10-31T09:52:37;17.02;;;8.32;;
83115;SDS011;72996;40.206;44.498;2023-10-31T09:55:03;15.43;;;8.27;;
83115;SDS011;72996;40.206;44.498;2023-10-31T09:57:30;18.77;;;8.98;;
83115;SDS011;72996;40.206;44.498;2023-10-31T09:59:56;25.98;;;10.10;;
83115;SDS011;72996;40.206;44.498;2023-10-31T10:02:22;21.58;;;8.90;;
83115;SDS011;72996;40.206;44.498;2023-10-31T10:04:48;13.93;;;6.65;;
83115;SDS011;72996;40.206;44.498;2023-10-31T10:07:17;16.75;;;7.80;;
83115;SDS011;72996;40.206;44.498;2023-10-31T10:09:44;16.73;;;7.55;;
83115;SDS011;72996;40.206;44.498;2023-10-31T10:12:11;18.88;;;7.90;;
83115;SDS011;72996;40.206;44.498;2023-10-31T10:14:38;22.30;;;8.20;;
83115;SDS011;72996;40.206;44.498;2023-10-31T10:17:13;16.48;;;8.48;;
83115;SDS011;72996;40.206;44.498;2023-10-31T10:19:46;17.08;;;7.63;;
83115;SDS011;72996;40.206;44.498;2023-10-31T10:22:12;17.67;;;8.30;;
83115;SDS011;72996;40.206;44.498;2023-10-31T10:24:39;13.75;;;7.35;;
83115;SDS011;72996;40.206;44.498;2023-10-31T10:27:06;18.00;;;7.55;;
83115;SDS011;72996;40.206;44.498;2023-10-31T10:29:35;19.15;;;8.27;;
83115;SDS011;72996;40.206;44.498;2023-10-31T10:34:31;15.63;;;7.55;;
83115;SDS011;72996;40.206;44.498;2023-10-31T10:36:56;19.75;;;8.27;;
83115;SDS011;72996;40.206;44.498;2023-10-31T10:39:23;18.83;;;8.73;;
83115;SDS011;72996;40.206;44.498;2023-10-31T10:41:52;19.20;;;9.30;;
83115;SDS011;72996;40.206;44.498;2023-10-31T10:44:31;22.73;;;10.60;;
83115;SDS011;72996;40.206;44.498;2023-10-31T10:47:06;16.40;;;7.65;;
83115;SDS011;72996;40.206;44.498;2023-10-31T10:49:33;15.85;;;7.55;;
83115;SDS011;72996;40.206;44.498;2023-10-31T10:54:34;14.85;;;8.65;;
83115;SDS011;72996;40.206;44.498;2023-10-31T10:59:54;15.65;;;8.05;;
83115;SDS011;72996;40.206;44.498;2023-10-31T11:02:24;16.58;;;7.65;;
83115;SDS011;72996;40.206;44.498;2023-10-31T11:04:50;17.02;;;8.93;;
83115;SDS011;72996;40.206;44.498;2023-10-31T11:07:17;17.23;;;8.23;;
83115;SDS011;72996;40.206;44.498;2023-10-31T11:09:44;16.55;;;7.57;;
83115;SDS011;72996;40.206;44.498;2023-10-31T11:12:11;19.00;;;8.75;;
83115;SDS011;72996;40.206;44.498;2023-10-31T11:14:38;16.55;;;7.38;;
83115;SDS011;72996;40.206;44.498;2023-10-31T11:17:11;13.05;;;7.18;;
83115;SDS011;72996;40.206;44.498;2023-10-31T11:19:46;15.52;;;7.32;;
83115;SDS011;72996;40.206;44.498;2023-10-31T11:22:12;14.38;;;7.45;;
83115;SDS011;72996;40.206;44.498;2023-10-31T11:24:37;17.10;;;7.18;;
83115;SDS011;72996;40.206;44.498;2023-10-31T11:27:04;15.45;;;7.35;;
83115;SDS011;72996;40.206;44.498;2023-10-31T11:29:31;16.33;;;7.13;;
83115;SDS011;72996;40.206;44.498;2023-10-31T11:31:57;14.23;;;7.65;;
83115;SDS011;72996;40.206;44.498;2023-10-31T11:34:28;19.63;;;8.68;;
83115;SDS011;72996;40.206;44.498;2023-10-31T11:42:43;18.58;;;9.05;;
83115;SDS011;72996;40.206;44.498;2023-10-31T11:45:13;16.95;;;9.43;;
83115;SDS011;72996;40.206;44.498;2023-10-31T11:47:50;13.32;;;6.78;;
83115;SDS011;72996;40.206;44.498;2023-10-31T11:50:17;17.10;;;7.55;;
83115;SDS011;72996;40.206;44.498;2023-10-31T11:52:43;18.58;;;8.70;;
83115;SDS011;72996;40.206;44.498;2023-10-31T11:55:09;18.45;;;8.55;;
83115;SDS011;72996;40.206;44.498;2023-10-31T11:57:36;18.92;;;8.65;;
83115;SDS011;72996;40.206;44.498;2023-10-31T12:00:02;16.85;;;7.65;;
83115;SDS011;72996;40.206;44.498;2023-10-31T12:02:30;17.05;;;8.75;;
83115;SDS011;72996;40.206;44.498;2023-10-31T12:05:08;23.05;;;8.35;;
83115;SDS011;72996;40.206;44.498;2023-10-31T12:07:44;18.38;;;8.70;;
83115;SDS011;72996;40.206;44.498;2023-10-31T12:10:10;21.13;;;9.27;;
83115;SDS011;72996;40.206;44.498;2023-10-31T12:12:37;14.65;;;7.47;;
83115;SDS011;72996;40.206;44.498;2023-10-31T12:15:09;18.63;;;7.93;;
83115;SDS011;72996;40.206;44.498;2023-10-31T12:17:35;17.15;;;8.15;;
83115;SDS011;72996;40.206;44.498;2023-10-31T12:20:04;17.95;;;8.40;;
83115;SDS011;72996;40.206;44.498;2023-10-31T12:22:32;19.10;;;8.43;;
83115;SDS011;72996;40.206;44.498;2023-10-31T12:25:05;16.88;;;7.85;;
83115;SDS011;72996;40.206;44.498;2023-10-31T12:27:48;18.42;;;8.45;;
83115;SDS011;72996;40.206;44.498;2023-10-31T12:30:15;17.17;;;7.82;;
83115;SDS011;72996;40.206;44.498;2023-10-31T12:35:12;17.48;;;8.02;;
83115;SDS011;72996;40.206;44.498;2023-10-31T12:37:45;16.20;;;7.90;;
83115;SDS011;72996;40.206;44.498;2023-10-31T12:42:40;15.90;;;7.70;;
83115;SDS011;72996;40.206;44.498;2023-10-31T12:45:07;16.80;;;7.57;;
83115;SDS011;72996;40.206;44.498;2023-10-31T12:47:33;17.20;;;7.85;;
83115;SDS011;72996;40.206;44.498;2023-10-31T12:50:09;18.65;;;7.32;;
83115;SDS011;72996;40.206;44.498;2023-10-31T12:52:48;16.70;;;7.10;;
83115;SDS011;72996;40.206;44.498;2023-10-31T12:55:16;12.43;;;7.45;;
83115;SDS011;72996;40.206;44.498;2023-10-31T12:57:46;18.33;;;6.88;;
83115;SDS011;72996;40.206;44.498;2023-10-31T13:00:16;17.45;;;7.35;;
83115;SDS011;72996;40.206;44.498;2023-10-31T13:02:49;20.15;;;8.50;;
83115;SDS011;72996;40.206;44.498;2023-10-31T13:05:16;18.52;;;7.28;;
83115;SDS011;72996;40.206;44.498;2023-10-31T13:07:49;16.60;;;8.20;;
83115;SDS011;72996;40.206;44.498;2023-10-31T13:10:16;22.77;;;8.88;;
83115;SDS011;72996;40.206;44.498;2023-10-31T13:12:45;19.63;;;8.52;;
83115;SDS011;72996;40.206;44.498;2023-10-31T13:15:15;20.27;;;9.20;;
83115;SDS011;72996;40.206;44.498;2023-10-31T13:17:42;19.65;;;8.68;;
83115;SDS011;72996;40.206;44.498;2023-10-31T13:20:11;22.27;;;8.95;;
83115;SDS011;72996;40.206;44.498;2023-10-31T13:22:38;17.45;;;8.38;;
83115;SDS011;72996;40.206;44.498;2023-10-31T13:25:05;16.02;;;8.02;;
83115;SDS011;72996;40.206;44.498;2023-10-31T13:27:33;15.82;;;6.50;;
83115;SDS011;72996;40.206;44.498;2023-10-31T13:30:00;14.80;;;7.00;;
83115;SDS011;72996;40.206;44.498;2023-10-31T13:32:27;20.80;;;7.18;;
83115;SDS011;72996;40.206;44.498;2023-10-31T13:34:52;23.77;;;8.23;;
83115;SDS011;72996;40.206;44.498;2023-10-31T13:37:18;21.15;;;9.20;;
83115;SDS011;72996;40.206;44.498;2023-10-31T13:39:44;21.08;;;7.68;;
83115;SDS011;72996;40.206;44.498;2023-10-31T13:42:09;20.80;;;10.93;;
83115;SDS011;72996;40.206;44.498;2023-10-31T13:44:39;20.65;;;11.45;;
83115;SDS011;72996;40.206;44.498;2023-10-31T13:47:05;17.35;;;10.77;;
83115;SDS011;72996;40.206;44.498;2023-10-31T13:49:31;23.23;;;12.48;;
83115;SDS011;72996;40.206;44.498;2023-10-31T13:51:57;24.08;;;12.65;;
83115;SDS011;72996;40.206;44.498;2023-10-31T13:54:22;29.42;;;14.90;;
83115;SDS011;72996;40.206;44.498;2023-10-31T13:56:48;20.85;;;12.60;;
83115;SDS011;72996;40.206;44.498;2023-10-31T13:59:13;24.13;;;13.93;;
83115;SDS011;72996;40.206;44.498;2023-10-31T14:01:40;23.92;;;12.85;;
83115;SDS011;72996;40.206;44.498;2023-10-31T14:04:09;29.73;;;13.20;;
83115;SDS011;72996;40.206;44.498;2023-10-31T14:06:35;25.80;;;12.20;;
83115;SDS011;72996;40.206;44.498;2023-10-31T14:09:02;28.15;;;12.65;;
83115;SDS011;72996;40.206;44.498;2023-10-31T14:11:32;23.73;;;11.30;;
83115;SDS011;72996;40.206;44.498;2023-10-31T14:13:59;25.45;;;11.30;;
83115;SDS011;72996;40.206;44.498;2023-10-31T14:16:31;25.92;;;10.98;;
83115;SDS011;72996;40.206;44.498;2023-10-31T14:18:59;23.00;;;10.30;;
83115;SDS011;72996;40.206;44.498;2023-10-31T14:21:27;27.30;;;11.05;;
83115;SDS011;72996;40.206;44.498;2023-10-31T14:23:53;24.50;;;10.32;;
83115;SDS011;72996;40.206;44.498;2023-10-31T14:26:21;18.95;;;9.57;;
83115;SDS011;72996;40.206;44.498;2023-10-31T14:28:48;21.80;;;9.38;;
83115;SDS011;72996;40.206;44.498;2023-10-31T14:31:14;23.80;;;10.38;;
83115;SDS011;72996;40.206;44.498;2023-10-31T14:33:40;26.63;;;11.38;;